sensor_id;sensor_type;location;lat;lon;timestamp;P1;durP1;ratioP1;P2;durP2;ratioP2
74483;SDS011;62942;52.462;10.846;2024-01-30T00:00:31;13.6;;;20.3;;
74483;SDS011;62942;52.462;10.846;2024-01-30T00:01:31;13;;;17.9;;
74483;SDS011;62942;52.462;10.846;2024-01-30T00:02:40;13.3;;;18;;
74483;SDS011;62942;52.462;10.846;2024-01-30T00:03:41;13.2;;;19;;
74483;SDS011;62942;52.462;10.846;2024-01-30T00:04:51;12.7;;;18.3;;
74483;SDS011;62942;52.462;10.846;2024-01-30T00:06:02;12.6;;;17.6;;
74483;SDS011;62942;52.462;10.846;2024-01-30T00:07:01;12.7;;;16.1;;
74483;SDS011;62942;52.462;10.846;2024-01-30T00:08:00;12.6;;;16.5;;
74483;SDS011;62942;52.462;10.846;2024-01-30T00:09:11;12.7;;;17.5;;
74483;SDS011;62942;52.462;10.846;2024-01-30T00:10:20;12.3;;;16.6;;
74483;SDS011;62942;52.462;10.846;2024-01-30T00:11:30;11.6;;;16.7;;
74483;SDS011;62942;52.462;10.846;2024-01-30T00:12:40;11.7;;;16.2;;
74483;SDS011;62942;52.462;10.846;2024-01-30T00:13:41;11.8;;;16.6;;
74483;SDS011;62942;52.462;10.846;2024-01-30T00:14:50;12.2;;;17.3;;
74483;SDS011;62942;52.462;10.846;2024-01-30T00:16:01;11.7;;;15.9;;
74483;SDS011;62942;52.462;10.846;2024-01-30T00:17:00;12.1;;;16.2;;
74483;SDS011;62942;52.462;10.846;2024-01-30T00:18:10;11.2;;;15.3;;
74483;SDS011;62942;52.462;10.846;2024-01-30T00:19:20;11.7;;;16.4;;
74483;SDS011;62942;52.462;10.846;2024-01-30T00:20:30;12;;;17.5;;
74483;SDS011;62942;52.462;10.846;2024-01-30T00:21:30;10.8;;;15.1;;
74483;SDS011;62942;52.462;10.846;2024-01-30T00:22:40;10.2;;;14.4;;
74483;SDS011;62942;52.462;10.846;2024-01-30T00:23:40;11;;;15.7;;
74483;SDS011;62942;52.462;10.846;2024-01-30T00:24:40;10.6;;;14.5;;
74483;SDS011;62942;52.462;10.846;2024-01-30T00:25:50;10;;;13.3;;
74483;SDS011;62942;52.462;10.846;2024-01-30T00:27:00;10;;;14.4;;
74483;SDS011;62942;52.462;10.846;2024-01-30T00:28:00;10.4;;;15.4;;
74483;SDS011;62942;52.462;10.846;2024-01-30T00:29:10;10.1;;;13.5;;
74483;SDS011;62942;52.462;10.846;2024-01-30T00:30:20;10.7;;;16.9;;
74483;SDS011;62942;52.462;10.846;2024-01-30T00:31:31;10.5;;;16.7;;
74483;SDS011;62942;52.462;10.846;2024-01-30T00:32:41;10.2;;;14.2;;
74483;SDS011;62942;52.462;10.846;2024-01-30T00:33:50;10.7;;;16;;
74483;SDS011;62942;52.462;10.846;2024-01-30T00:35:00;10.2;;;14.5;;
74483;SDS011;62942;52.462;10.846;2024-01-30T00:36:10;10.2;;;14.9;;
74483;SDS011;62942;52.462;10.846;2024-01-30T00:37:20;10.1;;;14.1;;
74483;SDS011;62942;52.462;10.846;2024-01-30T00:38:30;9.9;;;13.6;;
74483;SDS011;62942;52.462;10.846;2024-01-30T00:39:30;10.4;;;14.2;;
74483;SDS011;62942;52.462;10.846;2024-01-30T00:40:40;10.3;;;14.9;;
74483;SDS011;62942;52.462;10.846;2024-01-30T00:41:40;10.1;;;14.3;;
74483;SDS011;62942;52.462;10.846;2024-01-30T00:42:41;10.4;;;14.5;;
74483;SDS011;62942;52.462;10.846;2024-01-30T00:43:50;10.5;;;16.4;;
74483;SDS011;62942;52.462;10.846;2024-01-30T00:44:50;10.2;;;15.2;;
74483;SDS011;62942;52.462;10.846;2024-01-30T00:46:00;10.6;;;14.8;;
74483;SDS011;62942;52.462;10.846;2024-01-30T00:47:10;11.6;;;16.8;;
74483;SDS011;62942;52.462;10.846;2024-01-30T00:48:20;10.9;;;15.3;;
74483;SDS011;62942;52.462;10.846;2024-01-30T00:49:20;10.9;;;14.5;;
74483;SDS011;62942;52.462;10.846;2024-01-30T00:50:30;10.9;;;15.4;;
74483;SDS011;62942;52.462;10.846;2024-01-30T00:51:30;11.7;;;16.3;;
74483;SDS011;62942;52.462;10.846;2024-01-30T00:52:40;11.5;;;17.1;;
74483;SDS011;62942;52.462;10.846;2024-01-30T00:53:50;11.1;;;16.1;;
74483;SDS011;62942;52.462;10.846;2024-01-30T00:54:50;10.5;;;14.6;;
74483;SDS011;62942;52.462;10.846;2024-01-30T00:55:50;10;;;14.1;;
74483;SDS011;62942;52.462;10.846;2024-01-30T00:57:00;10.2;;;14.9;;
74483;SDS011;62942;52.462;10.846;2024-01-30T00:58:10;9.5;;;15.1;;
74483;SDS011;62942;52.462;10.846;2024-01-30T00:59:20;9.4;;;13.9;;
74483;SDS011;62942;52.462;10.846;2024-01-30T01:00:31;10;;;14.2;;
74483;SDS011;62942;52.462;10.846;2024-01-30T01:01:40;9.5;;;13.9;;
74483;SDS011;62942;52.462;10.846;2024-01-30T01:02:50;9.8;;;13.5;;
74483;SDS011;62942;52.462;10.846;2024-01-30T01:03:50;9.4;;;13.4;;
74483;SDS011;62942;52.462;10.846;2024-01-30T01:05:01;9.5;;;13.4;;
74483;SDS011;62942;52.462;10.846;2024-01-30T01:06:00;9.6;;;14;;
74483;SDS011;62942;52.462;10.846;2024-01-30T01:07:10;9.3;;;13.3;;
74483;SDS011;62942;52.462;10.846;2024-01-30T01:08:10;9.6;;;13.3;;
74483;SDS011;62942;52.462;10.846;2024-01-30T01:09:11;9.3;;;13.7;;
74483;SDS011;62942;52.462;10.846;2024-01-30T01:10:20;9;;;12.3;;
74483;SDS011;62942;52.462;10.846;2024-01-30T01:11:30;9.2;;;13.3;;
74483;SDS011;62942;52.462;10.846;2024-01-30T01:12:40;9.2;;;14.4;;
74483;SDS011;62942;52.462;10.846;2024-01-30T01:13:40;9.6;;;14;;
74483;SDS011;62942;52.462;10.846;2024-01-30T01:14:50;9.3;;;12.4;;
74483;SDS011;62942;52.462;10.846;2024-01-30T01:16:00;9.2;;;12.8;;
74483;SDS011;62942;52.462;10.846;2024-01-30T01:17:10;9.2;;;12.6;;
74483;SDS011;62942;52.462;10.846;2024-01-30T01:18:10;9.3;;;13.7;;
74483;SDS011;62942;52.462;10.846;2024-01-30T01:19:10;9.3;;;13.8;;
74483;SDS011;62942;52.462;10.846;2024-01-30T01:20:20;9.6;;;14.5;;
74483;SDS011;62942;52.462;10.846;2024-01-30T01:21:30;9.6;;;13.9;;
74483;SDS011;62942;52.462;10.846;2024-01-30T01:22:40;9.1;;;12.8;;
74483;SDS011;62942;52.462;10.846;2024-01-30T01:23:40;8.9;;;13.3;;
74483;SDS011;62942;52.462;10.846;2024-01-30T01:24:50;9.5;;;13.2;;
74483;SDS011;62942;52.462;10.846;2024-01-30T01:26:00;9.1;;;13.2;;
74483;SDS011;62942;52.462;10.846;2024-01-30T01:27:00;9.4;;;12.5;;
74483;SDS011;62942;52.462;10.846;2024-01-30T01:28:00;9.6;;;12.8;;
74483;SDS011;62942;52.462;10.846;2024-01-30T01:29:10;9.6;;;12.7;;
74483;SDS011;62942;52.462;10.846;2024-01-30T01:30:20;9.9;;;13.6;;
74483;SDS011;62942;52.462;10.846;2024-01-30T01:31:20;10.3;;;14.6;;
74483;SDS011;62942;52.462;10.846;2024-01-30T01:32:30;9.5;;;14.3;;
74483;SDS011;62942;52.462;10.846;2024-01-30T01:33:40;9.7;;;13.8;;
74483;SDS011;62942;52.462;10.846;2024-01-30T01:34:50;10.1;;;14.7;;
74483;SDS011;62942;52.462;10.846;2024-01-30T01:35:50;10;;;14.4;;
74483;SDS011;62942;52.462;10.846;2024-01-30T01:37:00;9.5;;;14.1;;
74483;SDS011;62942;52.462;10.846;2024-01-30T01:38:10;9.2;;;13.7;;
74483;SDS011;62942;52.462;10.846;2024-01-30T01:39:21;9.6;;;12.9;;
74483;SDS011;62942;52.462;10.846;2024-01-30T01:40:30;9.2;;;13.4;;
74483;SDS011;62942;52.462;10.846;2024-01-30T01:41:40;10.2;;;13.8;;
74483;SDS011;62942;52.462;10.846;2024-01-30T01:42:51;8.7;;;11.3;;
74483;SDS011;62942;52.462;10.846;2024-01-30T01:44:00;9.1;;;12.5;;
74483;SDS011;62942;52.462;10.846;2024-01-30T01:45:10;9.3;;;13.1;;
74483;SDS011;62942;52.462;10.846;2024-01-30T01:46:20;9.6;;;13.1;;
74483;SDS011;62942;52.462;10.846;2024-01-30T01:47:30;9.8;;;13.8;;
74483;SDS011;62942;52.462;10.846;2024-01-30T01:48:40;9.7;;;12.7;;
74483;SDS011;62942;52.462;10.846;2024-01-30T01:49:40;9.9;;;13.2;;
74483;SDS011;62942;52.462;10.846;2024-01-30T01:50:51;9.7;;;14.4;;
74483;SDS011;62942;52.462;10.846;2024-01-30T01:52:00;9.8;;;14.2;;
74483;SDS011;62942;52.462;10.846;2024-01-30T01:53:10;10.3;;;14.6;;
74483;SDS011;62942;52.462;10.846;2024-01-30T01:54:20;10.2;;;14.5;;
74483;SDS011;62942;52.462;10.846;2024-01-30T01:55:30;10.2;;;14.4;;
74483;SDS011;62942;52.462;10.846;2024-01-30T01:56:40;9.8;;;13.8;;
74483;SDS011;62942;52.462;10.846;2024-01-30T01:57:51;10.1;;;14.5;;
74483;SDS011;62942;52.462;10.846;2024-01-30T01:59:04;9.8;;;13.1;;
74483;SDS011;62942;52.462;10.846;2024-01-30T02:00:11;10.1;;;14;;
74483;SDS011;62942;52.462;10.846;2024-01-30T02:01:21;9.9;;;14;;
74483;SDS011;62942;52.462;10.846;2024-01-30T02:02:30;10.2;;;14.4;;
74483;SDS011;62942;52.462;10.846;2024-01-30T02:03:30;10;;;14;;
74483;SDS011;62942;52.462;10.846;2024-01-30T02:04:40;9.7;;;13.6;;
74483;SDS011;62942;52.462;10.846;2024-01-30T02:05:50;9.7;;;12.5;;
74483;SDS011;62942;52.462;10.846;2024-01-30T02:06:50;9.5;;;12.4;;
74483;SDS011;62942;52.462;10.846;2024-01-30T02:08:00;9.6;;;15.3;;
74483;SDS011;62942;52.462;10.846;2024-01-30T02:09:10;9.6;;;13.2;;
74483;SDS011;62942;52.462;10.846;2024-01-30T02:10:20;9.4;;;12.9;;
74483;SDS011;62942;52.462;10.846;2024-01-30T02:11:30;9.6;;;13.5;;
74483;SDS011;62942;52.462;10.846;2024-01-30T02:12:40;9.5;;;12.9;;
74483;SDS011;62942;52.462;10.846;2024-01-30T02:13:40;9.7;;;13.4;;
74483;SDS011;62942;52.462;10.846;2024-01-30T02:14:50;9.4;;;13.4;;
74483;SDS011;62942;52.462;10.846;2024-01-30T02:16:00;9.2;;;13.7;;
74483;SDS011;62942;52.462;10.846;2024-01-30T02:17:00;9.3;;;14.2;;
74483;SDS011;62942;52.462;10.846;2024-01-30T02:18:10;9.4;;;12.7;;
74483;SDS011;62942;52.462;10.846;2024-01-30T02:19:10;9.4;;;14.3;;
74483;SDS011;62942;52.462;10.846;2024-01-30T02:20:20;9.6;;;12.8;;
74483;SDS011;62942;52.462;10.846;2024-01-30T02:21:20;9.9;;;14.7;;
74483;SDS011;62942;52.462;10.846;2024-01-30T02:22:30;10.1;;;14.2;;
74483;SDS011;62942;52.462;10.846;2024-01-30T02:23:30;10.5;;;14.4;;
74483;SDS011;62942;52.462;10.846;2024-01-30T02:24:40;10.5;;;13.7;;
74483;SDS011;62942;52.462;10.846;2024-01-30T02:25:50;9.7;;;12.8;;
74483;SDS011;62942;52.462;10.846;2024-01-30T02:27:00;10;;;13.7;;
74483;SDS011;62942;52.462;10.846;2024-01-30T02:28:10;9.4;;;13;;
74483;SDS011;62942;52.462;10.846;2024-01-30T02:29:20;9.4;;;13.1;;
74483;SDS011;62942;52.462;10.846;2024-01-30T02:30:20;9.3;;;12.6;;
74483;SDS011;62942;52.462;10.846;2024-01-30T02:31:30;9.6;;;13.9;;
74483;SDS011;62942;52.462;10.846;2024-01-30T02:32:40;9.7;;;13.1;;
74483;SDS011;62942;52.462;10.846;2024-01-30T02:33:40;9.8;;;13;;
74483;SDS011;62942;52.462;10.846;2024-01-30T02:34:50;9.7;;;13.2;;
74483;SDS011;62942;52.462;10.846;2024-01-30T02:36:00;9.4;;;13.6;;
74483;SDS011;62942;52.462;10.846;2024-01-30T02:37:10;10.1;;;14.2;;
74483;SDS011;62942;52.462;10.846;2024-01-30T02:38:10;9.7;;;13.1;;
74483;SDS011;62942;52.462;10.846;2024-01-30T02:39:20;10;;;13.5;;
74483;SDS011;62942;52.462;10.846;2024-01-30T02:40:20;10.5;;;15.1;;
74483;SDS011;62942;52.462;10.846;2024-01-30T02:41:30;10.3;;;13.7;;
74483;SDS011;62942;52.462;10.846;2024-01-30T02:42:30;10;;;13.6;;
74483;SDS011;62942;52.462;10.846;2024-01-30T02:43:40;9.8;;;13.1;;
74483;SDS011;62942;52.462;10.846;2024-01-30T02:44:50;9.8;;;13.5;;
74483;SDS011;62942;52.462;10.846;2024-01-30T02:46:00;9.7;;;13.5;;
74483;SDS011;62942;52.462;10.846;2024-01-30T02:47:10;9.3;;;13.6;;
74483;SDS011;62942;52.462;10.846;2024-01-30T02:48:20;9.3;;;12.9;;
74483;SDS011;62942;52.462;10.846;2024-01-30T02:49:20;9.3;;;12.8;;
74483;SDS011;62942;52.462;10.846;2024-01-30T02:50:30;9.2;;;12.1;;
74483;SDS011;62942;52.462;10.846;2024-01-30T02:51:40;9.4;;;12.6;;
74483;SDS011;62942;52.462;10.846;2024-01-30T02:52:50;9.1;;;13.3;;
74483;SDS011;62942;52.462;10.846;2024-01-30T02:54:00;9.9;;;13.7;;
74483;SDS011;62942;52.462;10.846;2024-01-30T02:55:10;10.2;;;14.3;;
74483;SDS011;62942;52.462;10.846;2024-01-30T02:56:20;10.5;;;14.6;;
74483;SDS011;62942;52.462;10.846;2024-01-30T02:57:30;10.4;;;14.4;;
74483;SDS011;62942;52.462;10.846;2024-01-30T02:58:40;10.6;;;15;;
74483;SDS011;62942;52.462;10.846;2024-01-30T02:59:50;10.8;;;15.5;;
74483;SDS011;62942;52.462;10.846;2024-01-30T03:01:00;10.7;;;14.4;;
74483;SDS011;62942;52.462;10.846;2024-01-30T03:02:10;10.6;;;14.7;;
74483;SDS011;62942;52.462;10.846;2024-01-30T03:03:10;10.6;;;14.4;;
74483;SDS011;62942;52.462;10.846;2024-01-30T03:04:20;11;;;16.3;;
74483;SDS011;62942;52.462;10.846;2024-01-30T03:05:30;10.5;;;13.6;;
74483;SDS011;62942;52.462;10.846;2024-01-30T03:06:30;11.1;;;14.5;;
74483;SDS011;62942;52.462;10.846;2024-01-30T03:07:40;10.6;;;14.8;;
74483;SDS011;62942;52.462;10.846;2024-01-30T03:08:50;10.9;;;15.1;;
74483;SDS011;62942;52.462;10.846;2024-01-30T03:10:00;10.5;;;14.4;;
74483;SDS011;62942;52.462;10.846;2024-01-30T03:11:10;10.8;;;14.5;;
74483;SDS011;62942;52.462;10.846;2024-01-30T03:12:20;10.6;;;14.7;;
74483;SDS011;62942;52.462;10.846;2024-01-30T03:13:30;10.6;;;13.7;;
74483;SDS011;62942;52.462;10.846;2024-01-30T03:14:30;10.3;;;13.4;;
74483;SDS011;62942;52.462;10.846;2024-01-30T03:15:40;9.7;;;13.1;;
74483;SDS011;62942;52.462;10.846;2024-01-30T03:16:50;10.3;;;14;;
74483;SDS011;62942;52.462;10.846;2024-01-30T03:18:01;9.9;;;12.9;;
74483;SDS011;62942;52.462;10.846;2024-01-30T03:19:00;10.2;;;14;;
74483;SDS011;62942;52.462;10.846;2024-01-30T03:20:10;10.4;;;13.6;;
74483;SDS011;62942;52.462;10.846;2024-01-30T03:21:20;10.3;;;14.7;;
74483;SDS011;62942;52.462;10.846;2024-01-30T03:22:30;10.1;;;13.2;;
74483;SDS011;62942;52.462;10.846;2024-01-30T03:23:40;10.4;;;15.1;;
74483;SDS011;62942;52.462;10.846;2024-01-30T03:24:50;10.5;;;13.6;;
74483;SDS011;62942;52.462;10.846;2024-01-30T03:26:00;10;;;14.1;;
74483;SDS011;62942;52.462;10.846;2024-01-30T03:27:10;10.1;;;13.4;;
74483;SDS011;62942;52.462;10.846;2024-01-30T03:28:20;10.8;;;14.5;;
74483;SDS011;62942;52.462;10.846;2024-01-30T03:29:30;10.5;;;14.3;;
74483;SDS011;62942;52.462;10.846;2024-01-30T03:30:40;10;;;14.2;;
74483;SDS011;62942;52.462;10.846;2024-01-30T03:31:50;10.4;;;13.7;;
74483;SDS011;62942;52.462;10.846;2024-01-30T03:32:50;10.1;;;13;;
74483;SDS011;62942;52.462;10.846;2024-01-30T03:34:00;10;;;13.6;;
74483;SDS011;62942;52.462;10.846;2024-01-30T03:35:00;9.8;;;13.4;;
74483;SDS011;62942;52.462;10.846;2024-01-30T03:36:10;9.6;;;12.7;;
74483;SDS011;62942;52.462;10.846;2024-01-30T03:37:20;9.5;;;13.1;;
74483;SDS011;62942;52.462;10.846;2024-01-30T03:38:20;9.4;;;12.1;;
74483;SDS011;62942;52.462;10.846;2024-01-30T03:39:30;9.7;;;13.3;;
74483;SDS011;62942;52.462;10.846;2024-01-30T03:40:40;9.8;;;12.8;;
74483;SDS011;62942;52.462;10.846;2024-01-30T03:41:50;10.2;;;14.1;;
74483;SDS011;62942;52.462;10.846;2024-01-30T03:43:00;9.9;;;12.9;;
74483;SDS011;62942;52.462;10.846;2024-01-30T03:44:10;9.9;;;13.8;;
74483;SDS011;62942;52.462;10.846;2024-01-30T03:45:20;9.5;;;12.9;;
74483;SDS011;62942;52.462;10.846;2024-01-30T03:46:30;10;;;12.7;;
74483;SDS011;62942;52.462;10.846;2024-01-30T03:47:30;9.9;;;12.9;;
74483;SDS011;62942;52.462;10.846;2024-01-30T03:48:40;9.5;;;13;;
74483;SDS011;62942;52.462;10.846;2024-01-30T03:49:50;10.2;;;13.5;;
74483;SDS011;62942;52.462;10.846;2024-01-30T03:51:00;9.7;;;12.4;;
74483;SDS011;62942;52.462;10.846;2024-01-30T03:52:10;9.9;;;13.1;;
74483;SDS011;62942;52.462;10.846;2024-01-30T03:53:20;10.1;;;13.6;;
74483;SDS011;62942;52.462;10.846;2024-01-30T03:54:30;9.8;;;14;;
74483;SDS011;62942;52.462;10.846;2024-01-30T03:55:40;9.3;;;12.6;;
74483;SDS011;62942;52.462;10.846;2024-01-30T03:56:40;9.4;;;12.7;;
74483;SDS011;62942;52.462;10.846;2024-01-30T03:57:50;9.4;;;13.4;;
74483;SDS011;62942;52.462;10.846;2024-01-30T03:59:00;10;;;13.8;;
74483;SDS011;62942;52.462;10.846;2024-01-30T04:00:10;9.6;;;12.7;;
74483;SDS011;62942;52.462;10.846;2024-01-30T04:01:20;9.4;;;12.5;;
74483;SDS011;62942;52.462;10.846;2024-01-30T04:02:20;9.5;;;12.7;;
74483;SDS011;62942;52.462;10.846;2024-01-30T04:03:30;9.3;;;13.3;;
74483;SDS011;62942;52.462;10.846;2024-01-30T04:04:40;9.5;;;13.5;;
74483;SDS011;62942;52.462;10.846;2024-01-30T04:05:51;10;;;13.4;;
74483;SDS011;62942;52.462;10.846;2024-01-30T04:07:00;9.6;;;12.8;;
74483;SDS011;62942;52.462;10.846;2024-01-30T04:08:10;10.1;;;13.2;;
74483;SDS011;62942;52.462;10.846;2024-01-30T04:09:20;9.7;;;13.7;;
74483;SDS011;62942;52.462;10.846;2024-01-30T04:10:30;9.5;;;12.8;;
74483;SDS011;62942;52.462;10.846;2024-01-30T04:11:40;9.6;;;14.9;;
74483;SDS011;62942;52.462;10.846;2024-01-30T04:12:50;9.5;;;12.5;;
74483;SDS011;62942;52.462;10.846;2024-01-30T04:14:00;9.4;;;13.5;;
74483;SDS011;62942;52.462;10.846;2024-01-30T04:15:10;8.8;;;12;;
74483;SDS011;62942;52.462;10.846;2024-01-30T04:16:20;9.1;;;13.1;;
74483;SDS011;62942;52.462;10.846;2024-01-30T04:17:30;8.6;;;12.2;;
74483;SDS011;62942;52.462;10.846;2024-01-30T04:18:40;9;;;12;;
74483;SDS011;62942;52.462;10.846;2024-01-30T04:19:50;8.4;;;11.8;;
74483;SDS011;62942;52.462;10.846;2024-01-30T04:21:00;8.3;;;11.1;;
74483;SDS011;62942;52.462;10.846;2024-01-30T04:22:10;8.2;;;10.8;;
74483;SDS011;62942;52.462;10.846;2024-01-30T04:23:20;8.3;;;11.2;;
74483;SDS011;62942;52.462;10.846;2024-01-30T04:24:30;8.1;;;11.3;;
74483;SDS011;62942;52.462;10.846;2024-01-30T04:25:40;8.4;;;12.4;;
74483;SDS011;62942;52.462;10.846;2024-01-30T04:26:40;8;;;11.6;;
74483;SDS011;62942;52.462;10.846;2024-01-30T04:27:50;8.3;;;12.9;;
74483;SDS011;62942;52.462;10.846;2024-01-30T04:29:00;8.5;;;12.7;;
74483;SDS011;62942;52.462;10.846;2024-01-30T04:30:10;8.1;;;11.2;;
74483;SDS011;62942;52.462;10.846;2024-01-30T04:31:20;7.9;;;10.8;;
74483;SDS011;62942;52.462;10.846;2024-01-30T04:32:20;8.3;;;12.3;;
74483;SDS011;62942;52.462;10.846;2024-01-30T04:33:30;8.5;;;11.7;;
74483;SDS011;62942;52.462;10.846;2024-01-30T04:34:30;8.5;;;11.4;;
74483;SDS011;62942;52.462;10.846;2024-01-30T04:35:40;8.5;;;11.3;;
74483;SDS011;62942;52.462;10.846;2024-01-30T04:36:50;8.4;;;11.4;;
74483;SDS011;62942;52.462;10.846;2024-01-30T04:37:51;8.4;;;12.7;;
74483;SDS011;62942;52.462;10.846;2024-01-30T04:39:00;8.6;;;12;;
74483;SDS011;62942;52.462;10.846;2024-01-30T04:40:00;8.3;;;10.8;;
74483;SDS011;62942;52.462;10.846;2024-01-30T04:41:00;8.8;;;11.7;;
74483;SDS011;62942;52.462;10.846;2024-01-30T04:42:10;8.4;;;11.9;;
74483;SDS011;62942;52.462;10.846;2024-01-30T04:43:10;8.3;;;12.3;;
74483;SDS011;62942;52.462;10.846;2024-01-30T04:44:20;8.3;;;11.4;;
74483;SDS011;62942;52.462;10.846;2024-01-30T04:45:20;8.3;;;11.3;;
74483;SDS011;62942;52.462;10.846;2024-01-30T04:46:30;8.3;;;11.6;;
74483;SDS011;62942;52.462;10.846;2024-01-30T04:47:40;8.3;;;10.9;;
74483;SDS011;62942;52.462;10.846;2024-01-30T04:48:50;8.3;;;11.4;;
74483;SDS011;62942;52.462;10.846;2024-01-30T04:49:51;7.9;;;11.3;;
74483;SDS011;62942;52.462;10.846;2024-01-30T04:51:00;8.4;;;11;;
74483;SDS011;62942;52.462;10.846;2024-01-30T04:52:10;8.5;;;11.3;;
74483;SDS011;62942;52.462;10.846;2024-01-30T04:53:20;8.2;;;11;;
74483;SDS011;62942;52.462;10.846;2024-01-30T04:54:20;8.6;;;11.9;;
74483;SDS011;62942;52.462;10.846;2024-01-30T04:55:30;8.2;;;10.9;;
74483;SDS011;62942;52.462;10.846;2024-01-30T04:56:30;8.4;;;12.4;;
74483;SDS011;62942;52.462;10.846;2024-01-30T04:57:40;8.9;;;12.6;;
74483;SDS011;62942;52.462;10.846;2024-01-30T04:58:50;7.9;;;10.9;;
74483;SDS011;62942;52.462;10.846;2024-01-30T05:00:00;8;;;11;;
74483;SDS011;62942;52.462;10.846;2024-01-30T05:01:14;8;;;11;;
74483;SDS011;62942;52.462;10.846;2024-01-30T05:02:20;8;;;11.4;;
74483;SDS011;62942;52.462;10.846;2024-01-30T05:03:32;7.9;;;10.6;;
74483;SDS011;62942;52.462;10.846;2024-01-30T05:04:40;8.1;;;10.9;;
74483;SDS011;62942;52.462;10.846;2024-01-30T05:05:40;7.6;;;10.1;;
74483;SDS011;62942;52.462;10.846;2024-01-30T05:06:50;7.9;;;11.2;;
74483;SDS011;62942;52.462;10.846;2024-01-30T05:07:50;8.2;;;11.9;;
74483;SDS011;62942;52.462;10.846;2024-01-30T05:08:50;8.1;;;12.2;;
74483;SDS011;62942;52.462;10.846;2024-01-30T05:09:50;8.2;;;11.8;;
74483;SDS011;62942;52.462;10.846;2024-01-30T05:11:00;8.4;;;12;;
74483;SDS011;62942;52.462;10.846;2024-01-30T05:12:00;8.5;;;11.5;;
74483;SDS011;62942;52.462;10.846;2024-01-30T05:13:00;8.5;;;12.4;;
74483;SDS011;62942;52.462;10.846;2024-01-30T05:14:10;8.4;;;11.6;;
74483;SDS011;62942;52.462;10.846;2024-01-30T05:15:20;8.3;;;11.3;;
74483;SDS011;62942;52.462;10.846;2024-01-30T05:16:30;7.9;;;11;;
74483;SDS011;62942;52.462;10.846;2024-01-30T05:17:40;8;;;11.4;;
74483;SDS011;62942;52.462;10.846;2024-01-30T05:18:40;8;;;10.3;;
74483;SDS011;62942;52.462;10.846;2024-01-30T05:19:50;7.8;;;10.3;;
74483;SDS011;62942;52.462;10.846;2024-01-30T05:21:00;8.1;;;11;;
74483;SDS011;62942;52.462;10.846;2024-01-30T05:22:00;8;;;10.3;;
74483;SDS011;62942;52.462;10.846;2024-01-30T05:23:10;7.7;;;10;;
74483;SDS011;62942;52.462;10.846;2024-01-30T05:24:20;8;;;10.9;;
74483;SDS011;62942;52.462;10.846;2024-01-30T05:25:30;7.8;;;10.8;;
74483;SDS011;62942;52.462;10.846;2024-01-30T05:26:40;8.5;;;12.3;;
74483;SDS011;62942;52.462;10.846;2024-01-30T05:27:40;8.5;;;11.4;;
74483;SDS011;62942;52.462;10.846;2024-01-30T05:28:50;8.2;;;10.7;;
74483;SDS011;62942;52.462;10.846;2024-01-30T05:29:50;8.8;;;12.5;;
74483;SDS011;62942;52.462;10.846;2024-01-30T05:31:00;8.4;;;12;;
74483;SDS011;62942;52.462;10.846;2024-01-30T05:32:10;8.8;;;11.5;;
74483;SDS011;62942;52.462;10.846;2024-01-30T05:33:20;8.7;;;12.7;;
74483;SDS011;62942;52.462;10.846;2024-01-30T05:34:30;8.6;;;12.2;;
74483;SDS011;62942;52.462;10.846;2024-01-30T05:35:40;8.8;;;12.1;;
74483;SDS011;62942;52.462;10.846;2024-01-30T05:36:40;9;;;12;;
74483;SDS011;62942;52.462;10.846;2024-01-30T05:37:50;8.8;;;12.1;;
74483;SDS011;62942;52.462;10.846;2024-01-30T05:38:50;8.8;;;12.8;;
74483;SDS011;62942;52.462;10.846;2024-01-30T05:40:00;8.9;;;12.2;;
74483;SDS011;62942;52.462;10.846;2024-01-30T05:41:00;8.7;;;12.8;;
74483;SDS011;62942;52.462;10.846;2024-01-30T05:42:00;8.8;;;11.8;;
74483;SDS011;62942;52.462;10.846;2024-01-30T05:43:10;8.9;;;11.8;;
74483;SDS011;62942;52.462;10.846;2024-01-30T05:44:20;8.8;;;12.5;;
74483;SDS011;62942;52.462;10.846;2024-01-30T05:45:30;8.9;;;11.5;;
74483;SDS011;62942;52.462;10.846;2024-01-30T05:46:40;8.3;;;11.6;;
74483;SDS011;62942;52.462;10.846;2024-01-30T05:47:40;9.2;;;12.8;;
74483;SDS011;62942;52.462;10.846;2024-01-30T05:48:40;8.6;;;11.9;;
74483;SDS011;62942;52.462;10.846;2024-01-30T05:49:50;8.8;;;11.9;;
74483;SDS011;62942;52.462;10.846;2024-01-30T05:50:50;8.9;;;12.1;;
74483;SDS011;62942;52.462;10.846;2024-01-30T05:52:01;8.9;;;11.9;;
74483;SDS011;62942;52.462;10.846;2024-01-30T05:53:10;9.2;;;13.5;;
74483;SDS011;62942;52.462;10.846;2024-01-30T05:54:10;9.1;;;12.7;;
74483;SDS011;62942;52.462;10.846;2024-01-30T05:55:20;9.3;;;13.6;;
74483;SDS011;62942;52.462;10.846;2024-01-30T05:56:30;9.3;;;12.9;;
74483;SDS011;62942;52.462;10.846;2024-01-30T05:57:30;9.7;;;12.4;;
74483;SDS011;62942;52.462;10.846;2024-01-30T05:58:40;9.7;;;12.7;;
74483;SDS011;62942;52.462;10.846;2024-01-30T05:59:40;9.2;;;14.2;;
74483;SDS011;62942;52.462;10.846;2024-01-30T06:00:50;9.3;;;12.7;;
74483;SDS011;62942;52.462;10.846;2024-01-30T06:02:00;9.4;;;13.2;;
74483;SDS011;62942;52.462;10.846;2024-01-30T06:03:10;9.4;;;13.2;;
74483;SDS011;62942;52.462;10.846;2024-01-30T06:04:20;9.1;;;12.1;;
74483;SDS011;62942;52.462;10.846;2024-01-30T06:05:30;9.8;;;14.1;;
74483;SDS011;62942;52.462;10.846;2024-01-30T06:06:30;10.4;;;14.3;;
74483;SDS011;62942;52.462;10.846;2024-01-30T06:07:40;9.7;;;13.9;;
74483;SDS011;62942;52.462;10.846;2024-01-30T06:08:50;10;;;13.1;;
74483;SDS011;62942;52.462;10.846;2024-01-30T06:10:00;10.4;;;13.4;;
74483;SDS011;62942;52.462;10.846;2024-01-30T06:11:10;9.9;;;13.2;;
74483;SDS011;62942;52.462;10.846;2024-01-30T06:12:10;10.5;;;15.4;;
74483;SDS011;62942;52.462;10.846;2024-01-30T06:13:20;10.5;;;13.8;;
74483;SDS011;62942;52.462;10.846;2024-01-30T06:14:30;10.6;;;15.4;;
74483;SDS011;62942;52.462;10.846;2024-01-30T06:15:30;10;;;15.5;;
74483;SDS011;62942;52.462;10.846;2024-01-30T06:16:30;10.8;;;14.9;;
74483;SDS011;62942;52.462;10.846;2024-01-30T06:17:30;10.5;;;14.4;;
74483;SDS011;62942;52.462;10.846;2024-01-30T06:18:40;10.2;;;13.7;;
74483;SDS011;62942;52.462;10.846;2024-01-30T06:19:50;10.3;;;13.2;;
74483;SDS011;62942;52.462;10.846;2024-01-30T06:21:00;10.7;;;14.8;;
74483;SDS011;62942;52.462;10.846;2024-01-30T06:22:10;10.5;;;14.5;;
74483;SDS011;62942;52.462;10.846;2024-01-30T06:23:10;10.5;;;14.9;;
74483;SDS011;62942;52.462;10.846;2024-01-30T06:24:20;10.7;;;14.2;;
74483;SDS011;62942;52.462;10.846;2024-01-30T06:25:20;10.6;;;14.3;;
74483;SDS011;62942;52.462;10.846;2024-01-30T06:26:30;10.5;;;14.2;;
74483;SDS011;62942;52.462;10.846;2024-01-30T06:27:40;10.2;;;13.8;;
74483;SDS011;62942;52.462;10.846;2024-01-30T06:28:50;10.1;;;13.1;;
74483;SDS011;62942;52.462;10.846;2024-01-30T06:29:50;10.5;;;14.2;;
74483;SDS011;62942;52.462;10.846;2024-01-30T06:31:00;10.1;;;13.8;;
74483;SDS011;62942;52.462;10.846;2024-01-30T06:32:00;10.5;;;14.5;;
74483;SDS011;62942;52.462;10.846;2024-01-30T06:33:11;10.3;;;13.6;;
74483;SDS011;62942;52.462;10.846;2024-01-30T06:34:10;10.6;;;15;;
74483;SDS011;62942;52.462;10.846;2024-01-30T06:35:20;10.8;;;14.2;;
74483;SDS011;62942;52.462;10.846;2024-01-30T06:36:30;10.4;;;14.6;;
74483;SDS011;62942;52.462;10.846;2024-01-30T06:37:30;10.5;;;13.8;;
74483;SDS011;62942;52.462;10.846;2024-01-30T06:38:40;10.4;;;14.3;;
74483;SDS011;62942;52.462;10.846;2024-01-30T06:39:40;11.1;;;15.9;;
74483;SDS011;62942;52.462;10.846;2024-01-30T06:40:50;11;;;16;;
74483;SDS011;62942;52.462;10.846;2024-01-30T06:42:00;11.1;;;14.8;;
74483;SDS011;62942;52.462;10.846;2024-01-30T06:43:00;11.6;;;14.9;;
74483;SDS011;62942;52.462;10.846;2024-01-30T06:44:10;11.9;;;18.2;;
74483;SDS011;62942;52.462;10.846;2024-01-30T06:45:20;11.7;;;16;;